Time;durP1;ratioP1;P1;durP2;ratioP2;P2;SDS_P1;SDS_P2;PMS_P1;PMS_P2;Temp;Humidity;BMP_temperature;BMP_pressure;BME280_temperature;BME280_humidity;BME280_pressure;Samples;Min_cycle;Max_cycle;Signal;HPM_P1;HPM_P2
2021/03/13 00:01:03;;;;;;;73.20;43.45;;;10.10;99.90;;;;;;5087281;28;20020;-52
2021/03/13 00:03:29;;;;;;;64.35;42.53;;;10.10;99.90;;;;;;5056218;28;20120;-52
2021/03/13 00:05:55;;;;;;;55.22;37.53;;;10.10;99.90;;;;;;5074697;28;20169;-54
2021/03/13 00:08:21;;;;;;;51.28;39.63;;;9.90;99.90;;;;;;5086648;28;20115;-51
2021/03/13 00:10:48;;;;;;;53.67;39.80;;;9.90;99.90;;;;;;5094909;28;20095;-51
2021/03/13 00:13:15;;;;;;;48.42;38.33;;;9.80;99.90;;;;;;5094831;28;20105;-53
2021/03/13 00:15:42;;;;;;;41.33;29.52;;;9.80;99.90;;;;;;5094814;28;20017;-52
2021/03/13 00:18:09;;;;;;;50.88;39.42;;;9.60;99.90;;;;;;5094539;28;20111;-51
2021/03/13 00:20:36;;;;;;;56.75;44.83;;;9.60;99.90;;;;;;5094640;28;20074;-50
2021/03/13 00:23:05;;;;;;;55.33;42.50;;;9.60;99.90;;;;;;5094544;28;20061;-55
2021/03/13 00:25:32;;;;;;;54.80;45.63;;;9.60;99.90;;;;;;5109822;28;20040;-52
2021/03/13 00:27:58;;;;;;;58.45;45.08;;;9.70;99.90;;;;;;5109824;28;20111;-53
2021/03/13 00:30:34;;;;;;;59.38;47.58;;;9.70;99.90;;;;;;5094366;28;20028;-54
2021/03/13 00:33:09;;;;;;;55.80;43.40;;;9.70;99.90;;;;;;5075872;28;20028;-53
2021/03/13 00:35:36;;;;;;;59.05;44.45;;;9.70;99.90;;;;;;5074037;28;20534;-52
2021/03/13 00:38:03;;;;;;;55.63;42.47;;;9.70;99.90;;;;;;5074009;28;20123;-54
2021/03/13 00:40:31;;;;;;;54.58;42.13;;;9.70;99.90;;;;;;5073952;28;20116;-55
2021/03/13 00:42:58;;;;;;;52.20;40.60;;;9.60;99.90;;;;;;5074143;28;20090;-51
2021/03/13 00:45:25;;;;;;;54.25;42.95;;;9.60;99.90;;;;;;5073513;28;20487;-52
2021/03/13 00:47:52;;;;;;;55.67;43.53;;;9.60;99.90;;;;;;5073825;28;20554;-54
2021/03/13 00:50:20;;;;;;;56.47;45.00;;;9.80;99.90;;;;;;5077607;28;20024;-53
2021/03/13 00:52:46;;;;;;;55.55;44.03;;;9.80;99.90;;;;;;5093716;28;20047;-52
2021/03/13 00:55:13;;;;;;;58.08;44.08;;;9.80;99.90;;;;;;5094047;28;20475;-53
2021/03/13 00:57:38;;;;;;;59.45;45.80;;;9.90;99.90;;;;;;5088546;28;20024;-52
2021/03/13 01:00:16;;;;;;;55.63;43.45;;;9.90;99.90;;;;;;5094698;28;20030;-49
2021/03/13 01:02:42;;;;;;;52.90;42.85;;;10.00;99.90;;;;;;5083638;28;20028;-54
2021/03/13 01:05:10;;;;;;;52.72;43.55;;;10.10;99.90;;;;;;5109425;28;20039;-52
2021/03/13 01:07:37;;;;;;;52.95;43.05;;;10.00;99.90;;;;;;5094327;28;20028;-50
2021/03/13 01:10:13;;;;;;;55.67;43.15;;;10.00;99.90;;;;;;5093765;28;20467;-52
2021/03/13 01:12:39;;;;;;;55.05;42.85;;;10.10;99.90;;;;;;5087798;28;20107;-51
2021/03/13 01:15:11;;;;;;;51.22;42.50;;;10.00;99.90;;;;;;5073669;28;20024;-55
2021/03/13 01:17:37;;;;;;;;;;;10.00;99.90;;;;;;5038274;28;20032;-52
2021/03/13 01:20:05;;;;;;;57.85;42.95;;;10.00;99.90;;;;;;5071704;28;19939;-52
2021/03/13 01:22:31;;;;;;;59.78;46.85;;;10.10;99.90;;;;;;5038420;28;20044;-51
2021/03/13 01:24:57;;;;;;;58.60;46.67;;;10.10;99.90;;;;;;5075152;28;20506;-50
2021/03/13 01:27:23;;;;;;;58.05;45.65;;;10.10;99.90;;;;;;5091454;28;20087;-54
2021/03/13 01:29:49;;;;;;;59.97;46.40;;;10.00;99.90;;;;;;5058103;28;20040;-55
2021/03/13 01:32:15;;;;;;;61.33;44.92;;;9.90;99.90;;;;;;5091589;28;20044;-53
2021/03/13 01:34:40;;;;;;;57.88;45.38;;;9.80;99.90;;;;;;5057809;28;20036;-51
2021/03/13 01:37:06;;;;;;;57.38;44.85;;;9.70;99.90;;;;;;5058086;28;20067;-50
2021/03/13 01:39:32;;;;;;;56.97;44.03;;;9.80;99.90;;;;;;5091458;28;20074;-55
2021/03/13 01:41:58;;;;;;;53.20;42.25;;;9.90;99.90;;;;;;5091326;28;20024;-50
2021/03/13 01:44:23;;;;;;;53.78;42.00;;;9.90;99.90;;;;;;5091245;28;20056;-54
2021/03/13 01:46:50;;;;;;;51.88;39.83;;;10.00;99.90;;;;;;5057685;28;20523;-52
2021/03/13 01:49:27;;;;;;;55.72;43.20;;;10.00;99.90;;;;;;5093242;28;20036;-56
2021/03/13 01:51:53;;;;;;;52.67;41.10;;;10.10;99.90;;;;;;5075377;28;20449;-54
2021/03/13 01:54:19;;;;;;;55.05;41.67;;;10.10;99.90;;;;;;5071850;28;20173;-55
2021/03/13 01:56:48;;;;;;;52.22;42.22;;;10.00;99.90;;;;;;5073084;28;20476;-53
2021/03/13 01:59:17;;;;;;;52.83;41.92;;;10.00;99.90;;;;;;5073271;28;20016;-52
2021/03/13 02:01:43;;;;;;;57.08;44.13;;;9.90;99.90;;;;;;5075357;28;20035;-54
2021/03/13 02:04:10;;;;;;;53.47;42.30;;;9.90;99.90;;;;;;5076956;28;20042;-55
2021/03/13 02:06:36;;;;;;;51.92;40.97;;;9.90;99.90;;;;;;5076990;28;20035;-53
2021/03/13 02:09:34;;;;;;;55.40;42.60;;;9.80;99.90;;;;;;5076881;28;20020;-54
2021/03/13 02:12:11;;;;;;;53.20;39.40;;;9.80;99.90;;;;;;5074637;28;20037;-52
2021/03/13 02:14:49;;;;;;;49.28;36.92;;;9.80;99.90;;;;;;5076639;28;20021;-51
2021/03/13 02:17:24;;;;;;;50.88;39.42;;;9.70;99.90;;;;;;5076708;28;20036;-54
2021/03/13 02:20:17;;;;;;;49.75;37.88;;;9.70;99.90;;;;;;5076687;28;20515;-54
2021/03/13 02:22:43;;;;;;;47.20;36.13;;;9.50;99.90;;;;;;5076417;28;20383;-55
2021/03/13 02:25:53;;;;;;;43.67;34.75;;;9.50;99.90;;;;;;5076836;28;20467;-54
2021/03/13 02:28:50;;;;;;;39.90;31.35;;;9.50;99.90;;;;;;5034797;28;20041;-51
2021/03/13 02:31:18;;;;;;;38.25;30.80;;;9.40;99.90;;;;;;5001730;28;20041;-52
2021/03/13 02:33:48;;;;;;;38.25;31.17;;;9.40;99.90;;;;;;5034485;28;20041;-54
2021/03/13 02:36:19;;;;;;;33.45;27.15;;;9.40;99.90;;;;;;5034471;28;20072;-53
2021/03/13 02:38:52;;;;;;;26.87;21.47;;;9.40;99.90;;;;;;5034349;28;20485;-51
2021/03/13 02:41:21;;;;;;;27.35;21.52;;;9.20;99.90;;;;;;5034351;28;20367;-54
2021/03/13 02:43:54;;;;;;;24.05;19.77;;;9.10;99.90;;;;;;5034221;28;20587;-52
2021/03/13 02:46:24;;;;;;;20.05;15.48;;;8.90;99.90;;;;;;5034228;28;20069;-51
2021/03/13 02:48:51;;;;;;;27.10;23.38;;;9.00;99.90;;;;;;5034267;28;20022;-49
2021/03/13 02:51:26;;;;;;;28.23;22.95;;;9.20;99.90;;;;;;5033992;28;20049;-51
2021/03/13 02:53:54;;;;;;;24.75;21.92;;;9.00;99.90;;;;;;5034118;28;20551;-56
2021/03/13 02:56:20;;;;;;;26.05;23.25;;;9.10;99.90;;;;;;5034069;28;20136;-53
2021/03/13 02:58:51;;;;;;;25.48;22.17;;;9.30;99.90;;;;;;5034177;28;20160;-54
2021/03/13 03:01:19;;;;;;;24.85;21.75;;;9.30;99.90;;;;;;5017603;28;20099;-54
2021/03/13 03:03:46;;;;;;;23.83;21.27;;;9.30;99.90;;;;;;5034420;28;20089;-55
2021/03/13 03:06:13;;;;;;;24.40;21.65;;;9.30;99.90;;;;;;5075995;28;20037;-52
2021/03/13 03:08:41;;;;;;;26.65;21.30;;;9.30;99.90;;;;;;5073996;28;20036;-54
2021/03/13 03:11:09;;;;;;;26.02;21.30;;;9.30;99.90;;;;;;5075949;28;20032;-51
2021/03/13 03:13:36;;;;;;;17.23;13.13;;;9.20;99.90;;;;;;5075611;28;20036;-55
2021/03/13 03:16:04;;;;;;;20.77;17.95;;;9.00;99.90;;;;;;5056982;28;20439;-53
2021/03/13 03:18:32;;;;;;;19.52;16.30;;;9.00;99.90;;;;;;5039929;28;20557;-55
2021/03/13 03:20:59;;;;;;;20.70;18.00;;;8.90;99.90;;;;;;5073618;28;20064;-53
2021/03/13 03:23:25;;;;;;;19.58;15.05;;;8.90;99.90;;;;;;5073513;28;20543;-53
2021/03/13 03:25:55;;;;;;;18.17;16.23;;;8.80;99.90;;;;;;5023335;28;20499;-54
2021/03/13 03:28:21;;;;;;;22.38;17.83;;;8.80;99.90;;;;;;5073304;28;20035;-54
2021/03/13 03:30:49;;;;;;;18.75;16.52;;;8.80;99.90;;;;;;5073250;28;20431;-56
2021/03/13 03:33:15;;;;;;;17.08;14.90;;;8.80;99.90;;;;;;5073119;28;20484;-55
2021/03/13 03:35:42;;;;;;;16.80;15.00;;;8.70;99.90;;;;;;5073143;28;20040;-51
2021/03/13 03:38:08;;;;;;;19.00;15.73;;;8.90;99.90;;;;;;5073216;28;20415;-52
2021/03/13 03:40:34;;;;;;;16.02;13.15;;;9.00;99.90;;;;;;5073133;28;20043;-54
2021/03/13 03:43:09;;;;;;;14.77;12.00;;;9.00;99.90;;;;;;5055827;28;20028;-53
2021/03/13 03:45:35;;;;;;;14.88;11.80;;;8.70;99.90;;;;;;5039533;28;20044;-54
2021/03/13 03:48:15;;;;;;;15.05;13.25;;;8.70;99.90;;;;;;5074945;28;20508;-53
2021/03/13 03:50:43;;;;;;;16.92;14.15;;;8.80;99.90;;;;;;5073205;28;20052;-54
2021/03/13 03:53:16;;;;;;;15.40;13.68;;;8.90;99.90;;;;;;5039607;28;20124;-54
2021/03/13 03:55:46;;;;;;;14.98;13.05;;;9.00;99.90;;;;;;5074902;28;20384;-53
2021/03/13 03:58:15;;;;;;;14.77;13.25;;;9.10;99.90;;;;;;5074828;28;20029;-53
2021/03/13 04:00:41;;;;;;;14.07;12.60;;;9.00;99.90;;;;;;5074926;28;20142;-55
2021/03/13 04:03:12;;;;;;;14.55;12.82;;;9.00;99.90;;;;;;5074896;28;20048;-54
2021/03/13 04:05:45;;;;;;;13.63;12.23;;;9.10;99.90;;;;;;5074641;28;20125;-52
2021/03/13 04:08:14;;;;;;;12.50;11.27;;;9.00;99.90;;;;;;5074691;28;20025;-55
2021/03/13 04:10:43;;;;;;;12.18;10.98;;;9.10;99.90;;;;;;5075020;28;20024;-52
2021/03/13 04:13:11;;;;;;;12.25;11.15;;;9.10;99.90;;;;;;5074635;28;20021;-55
2021/03/13 04:15:39;;;;;;;12.63;11.35;;;9.10;99.90;;;;;;5074465;28;20383;-55
2021/03/13 04:18:05;;;;;;;12.35;11.10;;;9.10;99.90;;;;;;5074464;28;20023;-55
2021/03/13 04:20:31;;;;;;;11.77;10.57;;;9.30;99.90;;;;;;5074396;28;20463;-54
2021/03/13 04:22:58;;;;;;;11.00;9.88;;;9.20;99.90;;;;;;5072106;28;20048;-53
2021/03/13 04:25:25;;;;;;;12.80;11.60;;;9.00;99.90;;;;;;5071978;28;20500;-55
2021/03/13 04:27:51;;;;;;;12.43;11.23;;;9.10;99.90;;;;;;5072165;28;20123;-53
2021/03/13 04:30:19;;;;;;;12.30;11.15;;;9.20;99.90;;;;;;5072225;28;20461;-53
2021/03/13 04:32:47;;;;;;;12.65;11.40;;;9.20;99.90;;;;;;5022191;28;20040;-52
2021/03/13 04:35:14;;;;;;;12.00;10.68;;;9.30;99.90;;;;;;5022123;28;20075;-57
2021/03/13 04:37:41;;;;;;;12.82;11.52;;;9.40;99.90;;;;;;5055251;28;20094;-49
2021/03/13 04:40:09;;;;;;;11.20;10.18;;;9.50;99.90;;;;;;5072241;28;20051;-52
2021/03/13 04:42:37;;;;;;;12.45;10.88;;;9.50;99.90;;;;;;5022115;28;20567;-51
2021/03/13 04:45:04;;;;;;;12.45;11.25;;;9.50;99.90;;;;;;5071784;28;20036;-53
2021/03/13 04:47:30;;;;;;;12.00;10.80;;;9.30;99.90;;;;;;5038653;28;20119;-54
2021/03/13 04:49:58;;;;;;;12.73;11.32;;;9.30;99.90;;;;;;5072016;28;20020;-54
2021/03/13 04:52:26;;;;;;;12.55;11.35;;;9.40;99.90;;;;;;5071627;28;20155;-51
2021/03/13 04:54:52;;;;;;;14.52;12.18;;;9.50;99.90;;;;;;5053218;28;20033;-53
2021/03/13 04:57:18;;;;;;;11.98;10.65;;;9.50;99.90;;;;;;5073807;28;20024;-51
2021/03/13 04:59:44;;;;;;;11.57;10.48;;;9.50;99.90;;;;;;5072200;28;20033;-56
2021/03/13 05:02:09;;;;;;;14.70;11.90;;;9.50;99.90;;;;;;5073889;28;20031;-52
2021/03/13 05:04:35;;;;;;;11.57;10.38;;;9.40;99.90;;;;;;5073815;28;20471;-52
2021/03/13 05:07:01;;;;;;;12.23;11.02;;;9.40;99.90;;;;;;5073521;28;20085;-50
2021/03/13 05:09:27;;;;;;;11.45;10.00;;;9.50;99.90;;;;;;4989431;28;20107;-55
2021/03/13 05:11:52;;;;;;;12.77;11.48;;;9.50;99.90;;;;;;5055255;28;20506;-53
2021/03/13 05:14:18;;;;;;;11.00;9.93;;;9.60;99.90;;;;;;5073773;28;20460;-50
2021/03/13 05:16:44;;;;;;;10.80;9.68;;;9.70;99.90;;;;;;5073627;28;20035;-55
2021/03/13 05:19:09;;;;;;;11.07;9.82;;;9.80;99.90;;;;;;5073556;28;20021;-53
2021/03/13 05:21:35;;;;;;;10.80;9.70;;;9.70;99.90;;;;;;5073505;28;20059;-55
2021/03/13 05:24:01;;;;;;;11.75;10.63;;;9.50;99.90;;;;;;5004990;28;20032;-51
2021/03/13 05:26:27;;;;;;;11.77;10.57;;;9.60;99.90;;;;;;5071834;28;20081;-53
2021/03/13 05:28:52;;;;;;;11.60;10.50;;;9.60;99.90;;;;;;5073339;28;20025;-53
2021/03/13 05:31:18;;;;;;;11.40;10.23;;;9.60;99.90;;;;;;5073641;28;20442;-55
2021/03/13 05:33:44;;;;;;;11.80;10.55;;;9.70;99.90;;;;;;5073287;28;20025;-55
2021/03/13 05:36:11;;;;;;;10.80;9.63;;;9.80;99.90;;;;;;5074998;28;20024;-50
2021/03/13 05:38:37;;;;;;;10.63;9.63;;;9.90;99.90;;;;;;5076138;28;20127;-53
2021/03/13 05:41:04;;;;;;;10.50;9.50;;;9.80;99.90;;;;;;5077754;28;20107;-51
2021/03/13 05:43:32;;;;;;;13.00;11.73;;;9.80;99.90;;;;;;5077741;28;20025;-52
2021/03/13 05:45:59;;;;;;;11.55;10.38;;;9.70;99.90;;;;;;5077437;28;20040;-50
2021/03/13 05:48:26;;;;;;;11.07;9.95;;;9.80;99.90;;;;;;5077405;28;20070;-51
2021/03/13 05:50:54;;;;;;;11.07;9.98;;;9.80;99.90;;;;;;5076957;28;20048;-57
2021/03/13 05:53:21;;;;;;;11.00;9.90;;;10.00;99.90;;;;;;5076218;28;20515;-56
2021/03/13 05:55:46;;;;;;;11.75;9.40;;;10.10;99.90;;;;;;5077279;28;20032;-53
2021/03/13 05:58:12;;;;;;;12.07;10.75;;;10.00;99.90;;;;;;5077031;28;20357;-55
2021/03/13 06:00:40;;;;;;;11.40;10.30;;;9.80;99.90;;;;;;5077088;28;20024;-55
2021/03/13 06:03:06;;;;;;;12.00;10.82;;;9.90;99.90;;;;;;5077181;28;20024;-54
2021/03/13 06:05:33;;;;;;;10.73;9.63;;;9.80;99.90;;;;;;5082079;28;20040;-55
2021/03/13 06:08:00;;;;;;;11.38;10.10;;;9.80;99.90;;;;;;5097171;28;20028;-53
2021/03/13 06:10:25;;;;;;;11.98;10.65;;;9.90;99.90;;;;;;5112478;28;20078;-55
2021/03/13 06:12:51;;;;;;;12.32;10.80;;;10.00;99.90;;;;;;5087606;28;20056;-50
2021/03/13 06:15:20;;;;;;;11.50;10.30;;;10.00;99.90;;;;;;5076850;28;20490;-52
2021/03/13 06:18:03;;;;;;;11.32;10.23;;;9.90;99.90;;;;;;5076946;28;20028;-50
2021/03/13 06:20:33;;;;;;;10.77;9.82;;;10.10;99.90;;;;;;5076660;28;20108;-50
2021/03/13 06:23:15;;;;;;;11.45;10.30;;;10.10;99.90;;;;;;5076631;28;20028;-51
2021/03/13 06:25:42;;;;;;;11.68;10.45;;;10.10;99.90;;;;;;5108822;28;20041;-53
2021/03/13 06:28:13;;;;;;;12.48;11.18;;;10.00;99.90;;;;;;5108769;28;20403;-55
2021/03/13 06:30:43;;;;;;;10.75;9.48;;;10.20;99.90;;;;;;5074219;28;20441;-56
2021/03/13 06:33:32;;;;;;;10.55;9.45;;;10.40;99.90;;;;;;5074513;28;20040;-52
2021/03/13 06:36:01;;;;;;;10.13;9.10;;;10.60;99.90;;;;;;5014554;28;20049;-56
2021/03/13 06:38:29;;;;;;;11.18;10.10;;;10.60;99.90;;;;;;5014345;28;20033;-53
2021/03/13 06:41:13;;;;;;;10.43;9.43;;;10.60;99.90;;;;;;5014314;28;20122;-54
2021/03/13 06:43:40;;;;;;;11.13;9.38;;;;;;;;;;4998285;28;20030;-56
2021/03/13 06:46:08;;;;;;;9.85;8.90;;;;;;;;;;5014070;28;20085;-55
2021/03/13 06:48:33;;;;;;;8.93;8.02;;;11.90;99.90;;;;;;5014234;28;20026;-54
2021/03/13 06:51:19;;;;;;;8.63;7.82;;;12.10;99.90;;;;;;5016897;28;20530;-53
2021/03/13 06:53:57;;;;;;;9.32;8.40;;;12.20;99.90;;;;;;5034053;28;20150;-54
2021/03/13 06:56:25;;;;;;;7.55;6.90;;;;;;;;;;5034139;28;20072;-52
2021/03/13 06:58:51;;;;;;;7.88;7.15;;;;;;;;;;5033968;28;20028;-51
2021/03/13 07:01:25;;;;;;;7.72;7.03;;;;;;;;;;5034217;28;20508;-54
2021/03/13 07:03:51;;;;;;;8.43;7.38;;;;;;;;;;5033929;28;20120;-52
2021/03/13 07:06:18;;;;;;;7.70;7.00;;;12.30;99.90;;;;;;5033748;28;20041;-54
2021/03/13 07:08:45;;;;;;;7.72;6.97;;;12.40;99.90;;;;;;4969530;28;20508;-54
2021/03/13 07:11:11;;;;;;;7.90;7.10;;;12.30;99.90;;;;;;4983810;28;20099;-57
2021/03/13 07:13:49;;;;;;;8.75;7.72;;;12.30;99.90;;;;;;5033602;28;20138;-54
2021/03/13 07:16:33;;;;;;;9.05;8.15;;;12.10;99.90;;;;;;5053709;28;20510;-53
2021/03/13 07:19:12;;;;;;;8.48;7.68;;;12.00;99.90;;;;;;5020384;28;20071;-50
2021/03/13 07:21:42;;;;;;;10.48;8.55;;;12.20;99.90;;;;;;5053585;28;20041;-51
2021/03/13 07:24:13;;;;;;;9.52;8.63;;;;;;;;;;5053295;28;20116;-46
2021/03/13 07:26:43;;;;;;;9.77;8.40;;;;;;;;;;5053196;28;20064;-48
2021/03/13 07:29:10;;;;;;;8.65;7.75;;;;;;;;;;5051589;28;20084;-47
2021/03/13 07:31:40;;;;;;;9.93;8.77;;;;;;;;;;5045652;28;20079;-56
2021/03/13 07:34:09;;;;;;;9.32;8.40;;;;;;;;;;5032853;28;20044;-54
2021/03/13 07:36:39;;;;;;;8.38;7.57;;;;;;;;;;5032943;28;20168;-55
2021/03/13 07:39:12;;;;;;;9.13;8.23;;;;;;;;;;5043319;28;20040;-51
2021/03/13 07:41:38;;;;;;;9.68;8.68;;;;;;;;;;5090335;28;20495;-52
2021/03/13 07:44:06;;;;;;;8.15;7.35;;;;;;;;;;5074961;28;20035;-53
2021/03/13 07:46:33;;;;;;;8.52;7.72;;;;;;;;;;5089965;28;20518;-52
2021/03/13 07:49:00;;;;;;;7.93;7.22;;;;;;;;;;5090630;28;20503;-53
2021/03/13 07:51:27;;;;;;;8.48;7.68;;;;;;;;;;5074829;28;20044;-53
2021/03/13 07:53:53;;;;;;;9.60;8.63;;;;;;;;;;5075014;28;20028;-54
2021/03/13 07:56:19;;;;;;;9.60;8.68;;;12.80;99.90;;;;;;5075186;28;20372;-53
2021/03/13 07:58:45;;;;;;;9.23;8.40;;;;;;;;;;5073960;28;20434;-56
2021/03/13 08:01:12;;;;;;;9.57;8.68;;;12.50;99.90;;;;;;5075023;28;20029;-55
2021/03/13 08:03:40;;;;;;;8.50;7.70;;;13.00;99.90;;;;;;5090497;28;20089;-51
2021/03/13 08:06:09;;;;;;;7.80;6.88;;;;;;;;;;5074517;28;20045;-54
2021/03/13 08:08:35;;;;;;;8.13;7.38;;;13.50;99.90;;;;;;5074846;28;20052;-53
2021/03/13 08:11:02;;;;;;;8.68;6.90;;;;;;;;;;5089715;28;20063;-54
2021/03/13 08:13:28;;;;;;;7.68;6.88;;;;;;;;;;5074634;28;20131;-54
2021/03/13 08:16:07;;;;;;;7.47;6.78;;;;;;;;;;5074586;28;20028;-52
2021/03/13 08:18:57;;;;;;;7.95;7.25;;;;;;;;;;5075331;28;20118;-53
2021/03/13 08:21:23;;;;;;;6.93;6.32;;;14.30;99.90;;;;;;5074416;28;20059;-53
2021/03/13 08:23:53;;;;;;;6.15;5.60;;;;;;;;;;5089902;28;20068;-52
2021/03/13 08:26:21;;;;;;;6.00;5.47;;;15.30;99.90;;;;;;5074089;28;20383;-52
2021/03/13 08:28:47;;;;;;;6.15;5.55;;;16.00;99.90;;;;;;5092414;28;20042;-55
2021/03/13 08:31:22;;;;;;;7.10;6.50;;;15.90;99.90;;;;;;5092498;28;20519;-51
2021/03/13 08:34:03;;;;;;;6.60;5.97;;;;;;;;;;5092535;28;20542;-52
2021/03/13 08:36:33;;;;;;;10.07;8.27;;;;;;;;;;5092386;28;20063;-51
2021/03/13 08:39:00;;;;;;;8.13;6.60;;;;;;;;;;5092383;28;20036;-53
2021/03/13 08:41:41;;;;;;;16.27;14.85;;;17.40;99.90;;;;;;5092384;28;20028;-51
2021/03/13 08:44:12;;;;;;;8.75;7.78;;;16.50;99.90;;;;;;5092263;28;20090;-53
2021/03/13 08:46:44;;;;;;;6.10;5.20;;;16.50;99.90;;;;;;5092443;28;20537;-54
2021/03/13 08:49:31;;;;;;;10.38;4.97;;;17.50;99.90;;;;;;5092058;28;20085;-51
2021/03/13 08:52:09;;;;;;;4.25;3.85;;;18.20;99.90;;;;;;5097926;28;20120;-55
2021/03/13 08:54:40;;;;;;;7.20;4.20;;;;;;;;;;5112248;28;20046;-53
2021/03/13 08:57:08;;;;;;;8.07;4.22;;;;;;;;;;5112648;28;20085;-54
2021/03/13 08:59:35;;;;;;;12.30;8.52;;;18.50;99.90;;;;;;5104520;28;20548;-55
2021/03/13 09:02:11;;;;;;;16.60;12.43;;;17.50;99.90;;;;;;5092191;28;20089;-50
2021/03/13 09:04:39;;;;;;;10.93;9.20;;;16.60;99.90;;;;;;5093832;28;20421;-52
2021/03/13 09:07:06;;;;;;;8.80;7.90;;;16.00;99.90;;;;;;5109399;28;20035;-54
2021/03/13 09:09:34;;;;;;;7.88;7.10;;;15.30;99.90;;;;;;5093512;28;20022;-50
2021/03/13 09:12:09;;;;;;;4.20;3.80;;;16.30;99.90;;;;;;5094007;28;20024;-51
2021/03/13 09:14:37;;;;;;;6.47;3.83;;;18.00;99.90;;;;;;5091526;28;20040;-53
2021/03/13 09:17:15;;;;;;;7.25;3.85;;;;;;;;;;5093701;28;20032;-53
2021/03/13 09:19:43;;;;;;;4.32;3.45;;;;;;;;;;5093713;28;20520;-53
2021/03/13 09:22:11;;;;;;;4.70;4.30;;;22.30;95.10;;;;;;5093687;28;20032;-53
2021/03/13 09:24:37;;;;;;;5.28;4.60;;;21.10;92.40;;;;;;5093514;28;20498;-52
2021/03/13 09:27:04;;;;;;;12.50;5.43;;;19.80;94.80;;;;;;5093552;28;20107;-50
2021/03/13 09:29:34;;;;;;;4.35;3.88;;;19.90;94.90;;;;;;5091880;28;20236;-53
2021/03/13 09:32:06;;;;;;;9.95;5.40;;;19.30;94.60;;;;;;5093534;28;20024;-52
2021/03/13 09:34:37;;;;;;;10.43;7.55;;;19.30;93.80;;;;;;5093697;28;20020;-52
2021/03/13 09:37:21;;;;;;;7.53;4.93;;;19.50;95.20;;;;;;5094129;28;20043;-53
2021/03/13 09:39:48;;;;;;;19.27;6.93;;;18.60;95.50;;;;;;5092681;28;20047;-53
2021/03/13 09:42:22;;;;;;;6.72;4.40;;;18.30;96.20;;;;;;5092466;28;20522;-49
2021/03/13 09:44:49;;;;;;;4.72;4.20;;;18.10;96.40;;;;;;5092328;28;20043;-49
2021/03/13 09:47:34;;;;;;;5.13;3.80;;;17.80;97.40;;;;;;5092301;28;20107;-50
2021/03/13 09:50:05;;;;;;;16.55;5.93;;;18.50;97.80;;;;;;5107242;28;20116;-53
2021/03/13 09:52:33;;;;;;;5.82;4.78;;;18.70;96.40;;;;;;5089345;28;20083;-54
2021/03/13 09:55:11;;;;;;;12.02;5.65;;;17.70;96.20;;;;;;5056096;28;20089;-50
2021/03/13 09:57:41;;;;;;;9.10;4.93;;;17.30;97.80;;;;;;5089816;28;20044;-52
2021/03/13 10:00:17;;;;;;;6.25;4.45;;;18.60;98.10;;;;;;5089911;28;20115;-52
2021/03/13 10:02:44;;;;;;;4.20;3.80;;;18.80;94.10;;;;;;5040621;28;20040;-54
2021/03/13 10:05:26;;;;;;;6.40;4.18;;;19.60;94.60;;;;;;5089669;28;20042;-52
2021/03/13 10:07:52;;;;;;;7.95;4.18;;;20.70;93.30;;;;;;5089836;28;20044;-52
2021/03/13 10:10:22;;;;;;;6.22;4.25;;;;;;;;;;5089842;28;20034;-51
2021/03/13 10:12:51;;;;;;;9.30;4.80;;;;;;;;;;5089757;28;20044;-52
2021/03/13 10:15:25;;;;;;;5.57;3.70;;;22.90;99.90;;;;;;5089702;28;20038;-51
2021/03/13 10:17:59;;;;;;;4.75;3.13;;;22.20;79.00;;;;;;5090055;28;20214;-50
2021/03/13 10:20:38;;;;;;;5.10;4.07;;;22.60;77.30;;;;;;5057506;28;20040;-53
2021/03/13 10:23:06;;;;;;;7.72;4.38;;;;;;;;;;5094474;28;20040;-51
2021/03/13 10:25:33;;;;;;;8.80;5.47;;;23.00;75.00;;;;;;5097019;28;20035;-52
2021/03/13 10:28:04;;;;;;;8.75;4.38;;;23.50;74.50;;;;;;5097051;28;20051;-53
2021/03/13 10:30:30;;;;;;;4.63;3.57;;;23.60;72.90;;;;;;5112474;28;20043;-51
2021/03/13 10:32:56;;;;;;;4.68;3.88;;;24.20;69.30;;;;;;5096779;28;20266;-50
2021/03/13 10:35:26;;;;;;;6.68;4.03;;;24.10;68.50;;;;;;5112314;28;20036;-50
2021/03/13 10:38:00;;;;;;;6.75;4.47;;;24.30;69.40;;;;;;5096781;28;20042;-50
2021/03/13 10:40:30;;;;;;;12.68;8.20;;;24.30;68.00;;;;;;5096542;28;20398;-50
2021/03/13 10:43:24;;;;;;;4.70;3.85;;;24.20;67.00;;;;;;5096564;28;20059;-50
2021/03/13 10:45:56;;;;;;;6.95;4.32;;;24.00;67.00;;;;;;5096575;28;20061;-49
2021/03/13 10:48:22;;;;;;;6.90;5.38;;;24.10;64.90;;;;;;5096740;28;20032;-53
2021/03/13 10:50:48;;;;;;;5.10;4.35;;;23.80;67.90;;;;;;5060864;28;20066;-51
2021/03/13 10:53:31;;;;;;;6.63;5.90;;;23.10;68.50;;;;;;5094539;28;20047;-50
2021/03/13 10:56:05;;;;;;;4.70;4.30;;;21.70;70.30;;;;;;5111967;28;20494;-48
2021/03/13 10:58:33;;;;;;;7.93;4.43;;;21.60;75.00;;;;;;5096278;28;20039;-50
2021/03/13 11:01:00;;;;;;;4.50;3.85;;;21.10;75.90;;;;;;5096531;28;20436;-52
2021/03/13 11:03:26;;;;;;;10.48;4.93;;;21.70;72.40;;;;;;5096192;28;20028;-51
2021/03/13 11:05:53;;;;;;;9.20;6.05;;;22.70;72.50;;;;;;5095994;28;20043;-52
2021/03/13 11:08:21;;;;;;;4.47;3.65;;;23.00;72.00;;;;;;5111695;28;20071;-49
2021/03/13 11:10:48;;;;;;;120.15;60.17;;;23.50;85.30;;;;;;5060292;28;20051;-51
2021/03/13 11:13:15;;;;;;;34.33;7.18;;;23.70;71.30;;;;;;5058251;28;20044;-50
2021/03/13 11:15:40;;;;;;;4.05;3.30;;;23.70;65.80;;;;;;5073464;28;20037;-51
2021/03/13 11:18:07;;;;;;;16.48;7.95;;;23.40;65.60;;;;;;5091782;28;20039;-51
2021/03/13 11:20:34;;;;;;;9.35;4.95;;;23.50;66.80;;;;;;5074830;28;20135;-49
2021/03/13 11:23:00;;;;;;;5.63;3.40;;;24.10;65.60;;;;;;5075365;28;20040;-52
2021/03/13 11:25:26;;;;;;;4.55;3.63;;;24.60;62.50;;;;;;5058165;28;20422;-51
2021/03/13 11:27:52;;;;;;;4.22;3.30;;;24.90;62.60;;;;;;5087959;28;20036;-53
2021/03/13 11:30:18;;;;;;;6.25;4.00;;;24.90;62.80;;;;;;5092797;28;20055;-52
2021/03/13 11:32:44;;;;;;;26.10;6.47;;;25.20;69.10;;;;;;5034392;28;20041;-50
2021/03/13 11:35:11;;;;;;;7.70;3.90;;;25.30;61.40;;;;;;5052254;28;20041;-49
2021/03/13 11:37:37;;;;;;;6.88;4.10;;;25.30;73.30;;;;;;5053091;28;20048;-57
2021/03/13 11:40:08;;;;;;;6.90;4.15;;;25.00;67.80;;;;;;5053170;28;20040;-55
2021/03/13 11:42:35;;;;;;;5.57;4.40;;;24.80;67.10;;;;;;5069826;28;20040;-52
2021/03/13 11:45:01;;;;;;;4.43;3.65;;;24.80;74.10;;;;;;5073046;28;20055;-53
2021/03/13 11:47:27;;;;;;;4.43;3.47;;;24.80;66.70;;;;;;5023258;28;20040;-54
2021/03/13 11:49:54;;;;;;;6.68;4.00;;;25.00;62.30;;;;;;5065849;28;20032;-55
2021/03/13 11:52:21;;;;;;;7.47;5.43;;;24.80;62.30;;;;;;5062794;28;20045;-52
2021/03/13 11:54:48;;;;;;;5.78;4.47;;;;;;;;;;5058773;28;20143;-52
2021/03/13 11:57:14;;;;;;;6.65;5.00;;;24.40;91.80;;;;;;5063507;28;20044;-55
2021/03/13 11:59:41;;;;;;;9.27;5.57;;;;;;;;;;5053071;28;20040;-53
2021/03/13 12:02:07;;;;;;;4.75;4.25;;;24.10;65.20;;;;;;5052822;28;20033;-53
2021/03/13 12:04:33;;;;;;;7.60;5.20;;;24.20;64.20;;;;;;5052288;28;20521;-53
2021/03/13 12:06:59;;;;;;;6.55;5.05;;;24.20;66.80;;;;;;5052583;28;20069;-54
2021/03/13 12:09:24;;;;;;;11.77;5.60;;;24.00;66.90;;;;;;5056536;28;20550;-53
2021/03/13 12:11:50;;;;;;;10.88;7.32;;;23.50;67.40;;;;;;5074132;28;20220;-55
2021/03/13 12:14:16;;;;;;;8.57;4.80;;;23.70;64.40;;;;;;5074518;28;20027;-51
2021/03/13 12:16:42;;;;;;;6.30;4.82;;;24.20;65.30;;;;;;5083730;28;20098;-53
2021/03/13 12:19:07;;;;;;;25.45;14.15;;;24.10;63.50;;;;;;5082721;28;20360;-57
2021/03/13 12:21:33;;;;;;;7.63;4.75;;;23.20;67.20;;;;;;5089257;28;20032;-53
2021/03/13 12:23:59;;;;;;;6.35;4.72;;;23.70;87.90;;;;;;5074340;28;20103;-54
2021/03/13 12:26:25;;;;;;;5.47;4.05;;;23.00;65.20;;;;;;5074222;28;20543;-54
2021/03/13 12:28:51;;;;;;;5.75;4.05;;;23.60;67.50;;;;;;5072894;28;20381;-55
2021/03/13 12:31:18;;;;;;;4.72;3.50;;;23.80;65.70;;;;;;5076913;28;20024;-56
2021/03/13 12:33:44;;;;;;;6.43;3.30;;;23.80;63.20;;;;;;5104968;28;20534;-52
2021/03/13 12:36:11;;;;;;;6.63;3.00;;;23.60;64.70;;;;;;5025435;28;20115;-55
2021/03/13 12:38:36;;;;;;;4.80;3.22;;;23.80;63.40;;;;;;5089052;28;20067;-55
2021/03/13 12:41:04;;;;;;;5.50;4.00;;;23.70;63.50;;;;;;5071875;28;20068;-54
2021/03/13 12:43:30;;;;;;;2.95;2.42;;;23.40;66.30;;;;;;5084755;28;20028;-56
2021/03/13 12:45:56;;;;;;;7.28;5.18;;;23.50;63.50;;;;;;5088334;28;20040;-56
2021/03/13 12:48:22;;;;;;;7.45;5.32;;;23.30;66.30;;;;;;5089705;28;20039;-56
2021/03/13 12:50:48;;;;;;;5.70;4.53;;;23.40;65.00;;;;;;5093247;28;20044;-56
2021/03/13 12:53:14;;;;;;;4.63;4.13;;;23.20;65.20;;;;;;5091339;28;20027;-55
2021/03/13 12:55:40;;;;;;;5.75;4.93;;;22.40;69.40;;;;;;5073682;28;20096;-55
2021/03/13 12:58:06;;;;;;;6.22;5.22;;;22.90;69.30;;;;;;5073442;28;20472;-54
2021/03/13 13:00:31;;;;;;;5.43;4.70;;;23.00;71.00;;;;;;5073813;28;20095;-56
2021/03/13 13:02:57;;;;;;;4.60;4.18;;;22.00;66.90;;;;;;5093261;28;20115;-55